createdAt,value
2023-05-23T00:01:24.812Z,101665.91
2023-05-23T00:03:57.366Z,101666.75
2023-05-23T00:06:29.426Z,101667.63
2023-05-23T00:09:01.884Z,101670.00
2023-05-23T00:11:33.894Z,101673.56
2023-05-23T00:14:08.425Z,101668.22
2023-05-23T00:16:42.904Z,101669.22
2023-05-23T00:19:16.377Z,101669.38
2023-05-23T00:21:48.847Z,101662.00
2023-05-23T00:24:20.773Z,101662.75
2023-05-23T00:26:52.927Z,101667.22
2023-05-23T00:29:24.926Z,101676.00
2023-05-23T00:31:57.154Z,101686.56
2023-05-23T00:34:29.304Z,101678.44
2023-05-23T00:37:02.365Z,101686.44
2023-05-23T00:39:34.378Z,101677.59
2023-05-23T00:42:06.730Z,101675.66
2023-05-23T00:44:38.681Z,101674.66
2023-05-23T00:47:13.858Z,101666.50
2023-05-23T00:49:46.307Z,101682.72
2023-05-23T00:52:18.334Z,101682.78
2023-05-23T00:54:50.675Z,101690.03
2023-05-23T00:57:23.192Z,101682.88
2023-05-23T00:59:55.735Z,101675.72
2023-05-23T01:02:28.655Z,101680.22
2023-05-23T01:05:02.464Z,101691.69
2023-05-23T01:07:34.407Z,101687.19
2023-05-23T01:10:07.860Z,101689.06
2023-05-23T01:13:25.004Z,101690.72
2023-05-23T01:16:14.958Z,101691.56
2023-05-23T01:19:14.581Z,101710.06
2023-05-23T01:21:54.970Z,101696.75
2023-05-23T01:24:36.684Z,101701.34
2023-05-23T01:27:42.366Z,101701.28
2023-05-23T01:30:19.190Z,101700.44
2023-05-23T01:32:56.642Z,101706.59
2023-05-23T01:35:29.446Z,101712.81
2023-05-23T01:38:01.636Z,101710.00
2023-05-23T01:40:33.582Z,101714.59
2023-05-23T01:43:05.703Z,101719.88
2023-05-23T01:45:37.904Z,101719.00
2023-05-23T01:48:11.950Z,101719.00
2023-05-23T01:50:47.688Z,101718.63
2023-05-23T01:53:23.649Z,101721.16
2023-05-23T01:55:56.369Z,101729.13
2023-05-23T01:58:28.478Z,101723.81
2023-05-23T02:01:01.323Z,101725.59
2023-05-23T02:03:33.474Z,101731.78
2023-05-23T02:06:05.643Z,101733.56
2023-05-23T02:08:37.792Z,101722.69
2023-05-23T02:11:10.719Z,101729.63
2023-05-23T02:13:42.673Z,101734.06
2023-05-23T02:16:14.703Z,101734.72
2023-05-23T02:18:46.829Z,101744.56
2023-05-23T02:21:19.422Z,101754.41
2023-05-23T02:23:51.405Z,101748.25
2023-05-23T02:26:23.426Z,101751.84
2023-05-23T02:28:55.412Z,101755.38
2023-05-23T02:31:28.079Z,101761.63
2023-05-23T02:34:00.186Z,101744.84
2023-05-23T02:36:33.484Z,101761.63
2023-05-23T02:39:06.616Z,101742.88
2023-05-23T02:41:38.802Z,101750.09
2023-05-23T02:44:10.867Z,101754.41
2023-05-23T02:46:42.873Z,101752.63
2023-05-23T02:49:14.956Z,101754.47
2023-05-23T02:51:46.936Z,101751.91
2023-05-23T02:54:18.998Z,101754.56
2023-05-23T02:56:52.466Z,101751.09
2023-05-23T02:59:24.466Z,101758.13
2023-05-23T03:01:56.436Z,101752.72
2023-05-23T03:04:29.632Z,101756.94
2023-05-23T03:07:05.335Z,101747.03
2023-05-23T03:09:39.107Z,101746.81
2023-05-23T03:12:11.084Z,101759.09
2023-05-23T03:14:43.000Z,101754.56
2023-05-23T03:17:14.964Z,101756.31
2023-05-23T03:19:46.921Z,101755.56
2023-05-23T03:22:18.881Z,101760.03
2023-05-23T03:24:50.763Z,101760.94
2023-05-23T03:27:22.690Z,101764.47
2023-05-23T03:29:54.648Z,101766.25
2023-05-23T03:32:26.706Z,101762.03
2023-05-23T03:34:58.661Z,101762.16
2023-05-23T03:37:30.651Z,101771.81
2023-05-23T03:40:02.708Z,101767.34
2023-05-23T03:42:34.638Z,101777.13
2023-05-23T03:45:07.324Z,101771.00
2023-05-23T03:47:39.570Z,101767.16
2023-05-23T03:50:11.625Z,101755.50
2023-05-23T03:52:43.613Z,101772.47
2023-05-23T03:55:15.804Z,101774.41
2023-05-23T03:57:51.851Z,101778.75
2023-05-23T04:00:23.866Z,101774.19
2023-05-23T04:02:57.348Z,101774.06
2023-05-23T04:05:29.402Z,101790.78
2023-05-23T04:08:01.398Z,101792.53
2023-05-23T04:10:33.364Z,101765.91
2023-05-23T04:13:06.364Z,101791.81
2023-05-23T04:15:39.911Z,101785.66
2023-05-23T04:18:12.156Z,101780.28
2023-05-23T04:20:44.248Z,101787.50
2023-05-23T04:23:16.336Z,101789.31
2023-05-23T04:25:48.531Z,101802.47
2023-05-23T04:28:20.664Z,101799.72
2023-05-23T04:30:53.593Z,101795.25
2023-05-23T04:33:26.301Z,101808.69
2023-05-23T04:35:58.314Z,101808.69
2023-05-23T04:38:30.332Z,101810.41
2023-05-23T04:41:02.466Z,101808.59
2023-05-23T04:43:34.483Z,101809.34
2023-05-23T04:46:06.525Z,101812.03
2023-05-23T04:48:39.036Z,101815.56
2023-05-23T04:51:11.598Z,101810.91
2023-05-23T04:53:44.562Z,101822.34
2023-05-23T04:56:18.590Z,101820.47
2023-05-23T04:58:51.899Z,101827.44
2023-05-23T05:01:28.104Z,101833.72
2023-05-23T05:04:00.437Z,101822.00
2023-05-23T05:06:32.827Z,101825.53
2023-05-23T05:09:04.847Z,101838.03
2023-05-23T05:11:36.835Z,101839.78
2023-05-23T05:14:08.861Z,101831.84
2023-05-23T05:16:40.951Z,101836.25
2023-05-23T05:19:13.078Z,101840.72
2023-05-23T05:21:45.088Z,101841.53
2023-05-23T05:24:17.121Z,101851.41
2023-05-23T05:26:49.385Z,101845.13
2023-05-23T05:29:21.619Z,101853.06
2023-05-23T05:31:53.606Z,101852.09
2023-05-23T05:34:25.553Z,101851.94
2023-05-23T05:36:57.537Z,101859.88
2023-05-23T05:39:29.449Z,101854.47
2023-05-23T05:42:03.785Z,101858.84
2023-05-23T05:44:36.101Z,101872.09
2023-05-23T05:47:08.092Z,101866.81
2023-05-23T05:49:40.208Z,101867.56
2023-05-23T05:52:12.251Z,101877.09
2023-05-23T05:54:44.236Z,101870.72
2023-05-23T05:57:16.350Z,101878.84
2023-05-23T05:59:48.375Z,101872.63
2023-05-23T06:02:20.433Z,101843.88
2023-05-23T06:04:52.442Z,101884.25
2023-05-23T06:07:24.403Z,101879.91
2023-05-23T06:09:56.579Z,101870.81
2023-05-23T06:12:28.544Z,101894.25
2023-05-23T06:15:00.472Z,101895.06
2023-05-23T06:17:32.721Z,101903.69
2023-05-23T06:20:05.893Z,101902.56
2023-05-23T06:22:38.060Z,101897.00
2023-05-23T06:25:10.316Z,101908.31
2023-05-23T06:27:42.312Z,101909.13
2023-05-23T06:30:15.106Z,101906.47
2023-05-23T06:32:47.069Z,101917.06
2023-05-23T06:35:19.382Z,101919.00
2023-05-23T06:37:51.340Z,101908.31
2023-05-23T06:40:23.392Z,101921.63
2023-05-23T06:42:55.865Z,101901.72
2023-05-23T06:45:27.913Z,101926.03
2023-05-23T06:48:01.324Z,101928.41
2023-05-23T06:50:33.451Z,101934.75
2023-05-23T06:53:06.509Z,101931.19
2023-05-23T06:55:38.437Z,101944.75
2023-05-23T06:58:10.605Z,101948.34
2023-05-23T07:00:42.867Z,101948.25
2023-05-23T07:03:15.054Z,101958.66
2023-05-23T07:05:47.066Z,101966.44
2023-05-23T07:08:19.176Z,101958.25
2023-05-23T07:10:51.442Z,101970.28
2023-05-23T07:13:23.417Z,101967.41
2023-05-23T07:15:56.729Z,101971.78
2023-05-23T07:18:28.964Z,101969.78
2023-05-23T07:21:01.030Z,101966.28
2023-05-23T07:23:34.497Z,101969.97
2023-05-23T07:26:09.731Z,101972.94
2023-05-23T07:28:41.827Z,101958.06
2023-05-23T07:31:14.283Z,101966.06
2023-05-23T07:33:46.332Z,101962.63
2023-05-23T07:36:18.308Z,101969.94
2023-05-23T07:38:50.256Z,101973.38
2023-05-23T07:41:22.263Z,101972.88
2023-05-23T07:43:54.228Z,101958.28
2023-05-23T07:46:26.178Z,101970.94
2023-05-23T07:48:58.216Z,101975.59
2023-05-23T07:51:30.927Z,101964.50
2023-05-23T07:54:03.018Z,101974.53
2023-05-23T07:56:35.011Z,101980.97
2023-05-23T07:59:08.797Z,101980.00
2023-05-23T08:01:42.192Z,101981.63
2023-05-23T08:04:14.369Z,101980.59
2023-05-23T08:07:04.204Z,101988.63
2023-05-23T08:09:38.267Z,101993.19
2023-05-23T08:12:11.051Z,101981.56
2023-05-23T08:17:21.653Z,101939.97
2023-05-23T08:19:53.823Z,101996.66
2023-05-23T08:22:25.813Z,101995.84
2023-05-23T08:24:57.795Z,101998.47
2023-05-23T08:27:30.413Z,101993.97
2023-05-23T08:30:04.888Z,102011.56
2023-05-23T08:32:36.872Z,101998.19
2023-05-23T08:35:09.268Z,102008.69
2023-05-23T08:37:41.947Z,102004.97
2023-05-23T08:40:22.366Z,102007.69
2023-05-23T08:42:54.717Z,102009.69
2023-05-23T08:45:27.035Z,102008.00
2023-05-23T08:48:02.109Z,102003.63
2023-05-23T08:50:37.866Z,102008.19
2023-05-23T08:53:10.390Z,101974.09
2023-05-23T08:55:42.673Z,102015.22
2023-05-23T08:58:16.452Z,102017.00
2023-05-23T09:00:50.186Z,102018.72
2023-05-23T09:03:23.234Z,102024.22
2023-05-23T09:05:55.592Z,102008.09
2023-05-23T09:08:28.114Z,102024.28
2023-05-23T09:11:02.985Z,102028.63
2023-05-23T09:13:35.260Z,102024.03
2023-05-23T09:16:11.014Z,102033.00
2023-05-23T09:18:45.202Z,102029.69
2023-05-23T09:21:17.321Z,102025.44
2023-05-23T09:23:49.725Z,102025.53
2023-05-23T09:26:22.160Z,102024.66
2023-05-23T09:28:59.579Z,102040.31
2023-05-23T09:31:32.813Z,102036.47
2023-05-23T09:34:04.920Z,102040.00
2023-05-23T09:36:41.327Z,102037.38
2023-05-23T09:39:13.384Z,102027.25
2023-05-23T09:41:49.553Z,102032.25
2023-05-23T09:44:24.329Z,102040.44
2023-05-23T09:46:56.465Z,102047.44
2023-05-23T09:49:28.654Z,102039.44
2023-05-23T09:52:01.487Z,102041.22
2023-05-23T09:54:33.514Z,102038.69
2023-05-23T09:57:11.405Z,102043.78
2023-05-23T09:59:57.073Z,102035.91
2023-05-23T10:03:14.735Z,102045.91
2023-05-23T10:05:49.891Z,102045.22
2023-05-23T10:08:44.464Z,102029.16
2023-05-23T10:11:17.035Z,102046.50
2023-05-23T10:13:51.878Z,102038.69
2023-05-23T10:17:04.094Z,102032.44
2023-05-23T10:19:47.431Z,102035.66
2023-05-23T10:22:21.055Z,102044.81
2023-05-23T10:24:53.920Z,102026.66
2023-05-23T10:27:26.789Z,102033.50
2023-05-23T10:30:00.933Z,102034.47
2023-05-23T10:32:34.789Z,102026.31
2023-05-23T10:35:32.889Z,102046.88
2023-05-23T10:38:51.591Z,102038.91
2023-05-23T10:41:37.419Z,102033.31
2023-05-23T10:44:24.736Z,102023.28
2023-05-23T10:47:01.718Z,102015.59
2023-05-23T10:49:52.432Z,102022.53
2023-05-23T10:52:29.149Z,102015.34
2023-05-23T10:55:01.184Z,102025.25
2023-05-23T10:57:33.677Z,102024.50
2023-05-23T11:00:13.223Z,102022.19
2023-05-23T11:02:55.770Z,102015.28
2023-05-23T11:05:31.952Z,102021.66
2023-05-23T11:08:13.781Z,102008.47
2023-05-23T11:11:00.705Z,101989.63
2023-05-23T11:14:02.715Z,102006.66
2023-05-23T11:16:46.970Z,102014.41
2023-05-23T11:19:19.278Z,102016.75
2023-05-23T11:22:06.219Z,102026.53
2023-05-23T11:24:54.639Z,102025.13
2023-05-23T11:27:37.964Z,102011.34
2023-05-23T11:30:13.870Z,102013.63
2023-05-23T11:32:56.133Z,102018.41
2023-05-23T11:35:30.881Z,102008.59
2023-05-23T11:38:05.358Z,102018.56
2023-05-23T11:40:43.355Z,102022.13
2023-05-23T11:43:18.220Z,102021.22
2023-05-23T11:45:50.736Z,102014.97
2023-05-23T11:48:22.731Z,102004.38
2023-05-23T11:50:55.034Z,102018.06
2023-05-23T11:53:28.489Z,102014.59
2023-05-23T11:56:03.380Z,102021.66
2023-05-23T11:58:38.447Z,102017.94
2023-05-23T12:01:12.811Z,102019.78
2023-05-23T12:03:50.992Z,102016.22
2023-05-23T12:06:24.909Z,102011.91
2023-05-23T12:08:59.473Z,102018.28
2023-05-23T12:11:35.512Z,102006.56
2023-05-23T12:14:09.439Z,102015.34
2023-05-23T12:16:48.698Z,102032.88
2023-05-23T12:19:21.333Z,102030.97
2023-05-23T12:21:53.490Z,102024.69
2023-05-23T12:24:25.589Z,102043.31
2023-05-23T12:27:03.528Z,102032.59
2023-05-23T12:29:37.197Z,102031.78
2023-05-23T12:32:09.206Z,102024.59
2023-05-23T12:34:44.361Z,102034.56
2023-05-23T12:37:20.234Z,102043.47
2023-05-23T12:39:52.800Z,102037.06
2023-05-23T12:42:24.856Z,102039.88
2023-05-23T12:44:56.971Z,102037.38
2023-05-23T12:47:29.082Z,102052.34
2023-05-23T12:50:01.208Z,102056.75
2023-05-23T12:52:33.198Z,102063.00
2023-05-23T12:55:06.225Z,102044.44
2023-05-23T12:57:38.669Z,102050.03
2023-05-23T13:00:11.805Z,102045.59
2023-05-23T13:02:43.815Z,102054.63
2023-05-23T13:05:15.900Z,102062.75
2023-05-23T13:07:47.970Z,102055.59
2023-05-23T13:10:20.225Z,102052.19
2023-05-23T13:12:52.269Z,102053.88
2023-05-23T13:15:24.219Z,102050.94
2023-05-23T13:17:58.049Z,102028.56
2023-05-23T13:20:30.546Z,102042.34
2023-05-23T13:23:02.588Z,102048.00
2023-05-23T13:25:35.128Z,102051.53
2023-05-23T13:28:07.261Z,102035.53
2023-05-23T13:30:39.327Z,102026.56
2023-05-23T13:33:11.537Z,102035.44
2023-05-23T13:35:44.321Z,102040.59
2023-05-23T13:38:20.103Z,102043.13
2023-05-23T13:40:52.939Z,102034.97
2023-05-23T13:43:24.968Z,102026.13
2023-05-23T13:45:56.985Z,102043.13
2023-05-23T13:48:29.041Z,102032.47
2023-05-23T13:51:01.764Z,102042.19
2023-05-23T13:53:33.909Z,102045.78
2023-05-23T13:56:05.994Z,102042.22
2023-05-23T13:58:38.024Z,102045.53
2023-05-23T14:01:10.059Z,102030.69
2023-05-23T14:03:42.008Z,102043.84
2023-05-23T14:06:14.033Z,102037.56
2023-05-23T14:08:46.445Z,102043.06
2023-05-23T14:11:18.460Z,102042.97
2023-05-23T14:13:50.454Z,102042.13
2023-05-23T14:16:22.573Z,102032.31
2023-05-23T14:18:54.599Z,102024.25
2023-05-23T14:21:26.633Z,102022.59
2023-05-23T14:23:58.574Z,102040.38
2023-05-23T14:26:30.685Z,102039.50
2023-05-23T14:29:03.755Z,102049.44
2023-05-23T14:31:35.888Z,102044.19
2023-05-23T14:34:08.127Z,102046.78
2023-05-23T14:36:40.117Z,102055.72
2023-05-23T14:39:12.086Z,102050.22
2023-05-23T14:41:44.700Z,102042.91
2023-05-23T14:44:16.899Z,102049.84
2023-05-23T14:46:50.169Z,102042.56
2023-05-23T14:49:22.180Z,102044.50
2023-05-23T14:51:54.153Z,102042.75
2023-05-23T14:54:26.301Z,102025.91
2023-05-23T14:56:58.327Z,102027.88
2023-05-23T14:59:31.938Z,102033.31
2023-05-23T15:02:04.763Z,102037.94
2023-05-23T15:04:37.307Z,102035.25
2023-05-23T15:07:09.613Z,102045.97
2023-05-23T15:09:41.583Z,102032.56
2023-05-23T15:12:15.346Z,102031.78
2023-05-23T15:14:49.270Z,102029.97
2023-05-23T15:17:25.798Z,102038.88
2023-05-23T15:19:58.837Z,102042.28
2023-05-23T15:22:38.731Z,102042.16
2023-05-23T15:25:12.173Z,102036.75
2023-05-23T15:27:44.927Z,102029.72
2023-05-23T15:30:17.297Z,102034.19
2023-05-23T15:32:49.693Z,102028.94
2023-05-23T15:35:21.850Z,102019.16
2023-05-23T15:37:53.818Z,102023.63
2023-05-23T15:40:25.899Z,102037.88
2023-05-23T15:42:57.954Z,102031.53
2023-05-23T15:45:29.958Z,102033.16
2023-05-23T15:48:02.070Z,102034.75
2023-05-23T15:50:34.039Z,102038.06
2023-05-23T15:53:06.237Z,102028.09
2023-05-23T15:55:41.246Z,102043.31
2023-05-23T15:58:14.250Z,102050.47
2023-05-23T16:00:46.190Z,102040.41
2023-05-23T16:03:18.741Z,102050.22
2023-05-23T16:05:50.852Z,102044.88
2023-05-23T16:08:22.798Z,102050.19
2023-05-23T16:10:54.794Z,102063.28
2023-05-23T16:13:26.784Z,102057.78
2023-05-23T16:15:59.042Z,102055.91
2023-05-23T16:18:31.189Z,102048.81
2023-05-23T16:21:03.447Z,102054.25
2023-05-23T16:23:35.452Z,102052.47
2023-05-23T16:26:07.397Z,102040.97
2023-05-23T16:28:41.338Z,102048.03
2023-05-23T16:31:16.852Z,102051.53
2023-05-23T16:33:49.106Z,102044.31
2023-05-23T16:36:22.023Z,102038.03
2023-05-23T16:38:55.629Z,102049.44
2023-05-23T16:41:28.212Z,102050.25
2023-05-23T16:44:00.230Z,102043.06
2023-05-23T16:46:32.579Z,102043.13
2023-05-23T16:49:04.662Z,102049.25
2023-05-23T16:51:36.810Z,102047.44
2023-05-23T16:54:09.193Z,102051.00
2023-05-23T16:56:41.269Z,102041.09
2023-05-23T16:59:13.192Z,102043.69
2023-05-23T17:01:45.300Z,102049.72
2023-05-23T17:04:20.257Z,102051.44
2023-05-23T17:06:52.593Z,102051.38
2023-05-23T17:09:24.566Z,102055.59
2023-05-23T17:11:56.557Z,102053.78
2023-05-23T17:14:28.881Z,102058.16
2023-05-23T17:17:03.274Z,102053.69
2023-05-23T17:19:36.146Z,102057.31
2023-05-23T17:22:08.326Z,102058.97
2023-05-23T17:24:40.975Z,102062.53
2023-05-23T17:27:13.118Z,102062.38
2023-05-23T17:29:45.081Z,102042.56
2023-05-23T17:32:17.418Z,102058.63
2023-05-23T17:34:49.412Z,102035.25
2023-05-23T17:37:21.744Z,102053.22
2023-05-23T17:39:56.767Z,102048.47
2023-05-23T17:42:29.555Z,102054.75
2023-05-23T17:45:01.528Z,102069.72
2023-05-23T17:47:33.550Z,102060.63
2023-05-23T17:50:06.381Z,102047.91
2023-05-23T17:52:38.422Z,102064.84
2023-05-23T17:55:10.851Z,102065.59
2023-05-23T17:57:43.363Z,102071.63
2023-05-23T18:00:16.278Z,102065.16
2023-05-23T18:02:48.419Z,102064.16
2023-05-23T18:05:20.868Z,102072.31
2023-05-23T18:07:52.988Z,102080.34
2023-05-23T18:10:25.033Z,102089.25
2023-05-23T18:12:57.128Z,102081.25
2023-05-23T18:15:29.156Z,102084.56
2023-05-23T18:18:01.341Z,102090.53
2023-05-23T18:20:33.398Z,102088.72
2023-05-23T18:23:05.329Z,102092.28
2023-05-23T18:25:37.292Z,102097.22
2023-05-23T18:28:09.249Z,102098.81
2023-05-23T18:30:41.570Z,102103.16
2023-05-23T18:33:13.741Z,102101.41
2023-05-23T18:35:46.881Z,102106.78
2023-05-23T18:38:19.226Z,102095.97
2023-05-23T18:40:51.315Z,102098.63
2023-05-23T18:43:23.236Z,102102.84
2023-05-23T18:45:55.319Z,102106.22
2023-05-23T18:48:27.306Z,102101.72
2023-05-23T18:50:59.293Z,102085.63
2023-05-23T18:53:31.421Z,102093.38
2023-05-23T18:56:03.490Z,102103.94
2023-05-23T18:58:35.656Z,102095.94
2023-05-23T19:01:08.353Z,102108.19
2023-05-23T19:03:41.449Z,102110.72
2023-05-23T19:06:13.740Z,102113.22
2023-05-23T19:08:46.067Z,102106.81
2023-05-23T19:11:18.134Z,102112.06
2023-05-23T19:13:50.250Z,102117.00
2023-05-23T19:16:22.296Z,102118.56
2023-05-23T19:18:54.258Z,102133.28
2023-05-23T19:21:27.733Z,102141.88
2023-05-23T19:23:59.827Z,102147.84
2023-05-23T19:26:31.758Z,102153.09
2023-05-23T19:29:03.746Z,102154.81
2023-05-23T19:31:37.876Z,102160.22
2023-05-23T19:34:10.004Z,102166.09
2023-05-23T19:36:42.010Z,102164.09
2023-05-23T19:39:15.073Z,102165.69
2023-05-23T19:41:47.135Z,102174.53
2023-05-23T19:44:19.610Z,102167.06
2023-05-23T19:46:52.482Z,102179.50
2023-05-23T19:49:25.091Z,102183.81
2023-05-23T19:51:57.119Z,102176.94
2023-05-23T19:54:29.221Z,102187.81
2023-05-23T19:57:01.212Z,102183.25
2023-05-23T19:59:33.650Z,102165.13
2023-05-23T20:02:05.776Z,102186.19
2023-05-23T20:04:37.776Z,102193.31
2023-05-23T20:07:09.954Z,102192.28
2023-05-23T20:09:41.965Z,102193.19
2023-05-23T20:12:13.953Z,102206.47
2023-05-23T20:14:46.084Z,102209.53
2023-05-23T20:17:18.063Z,102205.94
2023-05-23T20:19:50.032Z,102209.34
2023-05-23T20:22:22.168Z,102196.69
2023-05-23T20:24:54.197Z,102221.50
2023-05-23T20:27:26.839Z,102224.06
2023-05-23T20:29:58.830Z,102237.06
2023-05-23T20:32:30.854Z,102220.06
2023-05-23T20:35:03.697Z,102233.63
2023-05-23T20:37:35.747Z,102233.50
2023-05-23T20:40:09.729Z,102234.28
2023-05-23T20:42:45.205Z,102242.13
2023-05-23T20:45:17.498Z,102247.38
2023-05-23T20:47:49.546Z,102241.97
2023-05-23T20:50:22.589Z,102233.03
2023-05-23T20:52:54.965Z,102231.28
2023-05-23T20:55:29.184Z,102228.47
2023-05-23T20:58:01.344Z,102227.41
2023-05-23T21:00:33.324Z,102233.66
2023-05-23T21:03:05.411Z,102227.28
2023-05-23T21:05:37.446Z,102228.75
2023-05-23T21:08:09.667Z,102226.94
2023-05-23T21:10:41.871Z,102238.44
2023-05-23T21:13:14.095Z,102234.84
2023-05-23T21:15:46.072Z,102232.97
2023-05-23T21:18:17.933Z,102231.16
2023-05-23T21:20:50.805Z,102232.78
2023-05-23T21:23:22.804Z,102234.63
2023-05-23T21:25:54.666Z,102229.19
2023-05-23T21:28:26.701Z,102235.31
2023-05-23T21:30:59.249Z,102235.97
2023-05-23T21:33:31.335Z,102226.84
2023-05-23T21:36:03.552Z,102231.25
2023-05-23T21:38:37.469Z,102232.66
2023-05-23T21:41:09.486Z,102236.13
2023-05-23T21:43:41.410Z,102240.38
2023-05-23T21:46:13.387Z,102236.72
2023-05-23T21:48:45.524Z,102244.66
2023-05-23T21:51:17.528Z,102233.00
2023-05-23T21:53:49.566Z,102230.91
2023-05-23T21:56:21.503Z,102233.44
2023-05-23T21:58:53.503Z,102231.50
2023-05-23T22:01:25.387Z,102237.53
2023-05-23T22:03:57.377Z,102231.19
2023-05-23T22:06:29.436Z,102234.63
2023-05-23T22:09:01.416Z,102242.47
2023-05-23T22:11:34.132Z,102233.50
2023-05-23T22:14:06.457Z,102229.84
2023-05-23T22:16:41.189Z,102231.53
2023-05-23T22:19:18.022Z,102227.84
2023-05-23T22:21:50.029Z,102224.16
2023-05-23T22:24:22.075Z,102230.25
2023-05-23T22:26:54.014Z,102236.25
2023-05-23T22:29:26.380Z,102238.88
2023-05-23T22:31:58.465Z,102238.63
2023-05-23T22:34:30.545Z,102238.34
2023-05-23T22:37:02.527Z,102236.41
2023-05-23T22:39:34.510Z,102236.28
2023-05-23T22:42:06.678Z,102239.84
2023-05-23T22:44:38.678Z,102246.72
2023-05-23T22:47:13.648Z,102235.97
2023-05-23T22:49:45.760Z,102241.19
2023-05-23T22:52:17.789Z,102249.69
2023-05-23T22:54:49.906Z,102251.25
2023-05-23T22:57:21.849Z,102247.63
2023-05-23T22:59:53.808Z,102224.25
2023-05-23T23:02:25.925Z,102245.53
2023-05-23T23:04:57.929Z,102235.56
2023-05-23T23:07:29.995Z,102238.00
2023-05-23T23:10:01.990Z,102233.50
2023-05-23T23:12:33.964Z,102237.03
2023-05-23T23:15:07.716Z,102232.50
2023-05-23T23:17:39.738Z,102228.97
2023-05-23T23:20:12.945Z,102235.91
2023-05-23T23:22:47.056Z,102239.41
2023-05-23T23:25:19.066Z,102239.25
2023-05-23T23:27:51.029Z,102235.38
2023-05-23T23:30:23.067Z,102247.00
2023-05-23T23:32:55.194Z,102244.00
2023-05-23T23:35:27.269Z,102249.16
2023-05-23T23:37:59.289Z,102245.50
2023-05-23T23:40:31.270Z,102236.63
2023-05-23T23:43:03.274Z,102247.06
2023-05-23T23:45:35.561Z,102242.41
2023-05-23T23:48:07.609Z,102250.13
2023-05-23T23:50:39.898Z,102244.56
2023-05-23T23:53:12.630Z,102243.63
2023-05-23T23:55:44.630Z,102231.59
2023-05-23T23:58:17.208Z,102241.31
